Time Latitude Longitude Accuracy (66% radius in meters) Altitude (meters) Speed (km/hour) Bearing (degrees) Battery (%) GPS flag
06:32:12 57.205143 60.117618 0 0 0 0 1 delete
06:32:11 57.205143 60.117596 0 0 0 0 1 delete
06:32:10 57.205145 60.117560 0 0 0 0 1 delete
06:32:09 57.205152 60.117519 0 0 0 0 1 delete
06:32:08 57.205160 60.117479 0 0 0 0 1 delete
06:32:07 57.205166 60.117440 0 0 0 0 1 delete
06:32:06 57.205170 60.117400 0 0 0 0 1 delete
06:32:05 57.205173 60.117358 0 0 0 0 1 delete
06:32:04 57.205175 60.117314 0 0 0 0 1 delete
06:32:03 57.205176 60.117271 0 0 0 0 1 delete
06:32:02 57.205177 60.117227 0 0 0 0 1 delete
06:32:01 57.205179 60.117183 0 0 0 0 1 delete
06:32:00 57.205182 60.117137 0 0 0 0 1 delete
06:31:59 57.205182 60.117093 0 0 0 0 1 delete
06:31:58 57.205180 60.117051 0 0 0 0 1 delete
06:31:57 57.205177 60.117010 0 0 0 0 1 delete
06:31:56 57.205175 60.116968 0 0 0 0 1 delete
06:31:55 57.205172 60.116926 0 0 0 0 1 delete
06:31:54 57.205169 60.116882 0 0 0 0 1 delete
06:31:53 57.205167 60.116836 0 0 0 0 1 delete
06:31:52 57.205167 60.116790 0 0 0 0 1 delete
06:31:51 57.205168 60.116743 0 0 0 0 1 delete
06:31:50 57.205170 60.116696 0 0 0 0 1 delete
06:31:49 57.205172 60.116648 0 0 0 0 1 delete
06:31:48 57.205174 60.116604 0 0 0 0 1 delete
06:31:47 57.205175 60.116563 0 0 0 0 1 delete
06:31:46 57.205176 60.116523 0 0 0 0 1 delete
06:31:45 57.205173 60.116486 0 0 0 0 1 delete
06:31:44 57.205169 60.116447 0 0 0 0 1 delete
06:31:43 57.205164 60.116408 0 0 0 0 1 delete
06:31:42 57.205160 60.116368 0 0 0 0 1 delete
06:31:41 57.205154 60.116326 0 0 0 0 1 delete
06:31:40 57.205147 60.116283 0 0 0 0 1 delete
06:31:39 57.205136 60.116239 0 0 0 0 1 delete
06:31:38 57.205118 60.116192 0 0 0 0 1 delete
06:31:37 57.205092 60.116147 0 0 0 0 1 delete
06:31:36 57.205061 60.116110 0 0 0 0 1 delete
06:31:35 57.205027 60.116084 0 0 0 0 1 delete
06:31:34 57.204992 60.116065 0 0 0 0 1 delete
06:31:33 57.204955 60.116052 0 0 0 0 1 delete
06:31:32 57.204919 60.116044 0 0 0 0 1 delete
06:31:31 57.204886 60.116038 0 0 0 0 1 delete
06:31:30 57.204855 60.116031 0 0 0 0 1 delete
06:31:29 57.204823 60.116022 0 0 0 0 1 delete
06:31:28 57.204789 60.116005 0 0 0 0 1 delete
06:31:27 57.204760 60.115973 0 0 0 0 1 delete
06:31:26 57.204737 60.115936 0 0 0 0 1 delete
06:31:25 57.204722 60.115894 0 0 0 0 1 delete
06:31:24 57.204707 60.115854 0 0 0 0 1 delete
06:31:23 57.204691 60.115809 0 0 0 0 1 delete